Scotstown, Canada
Current Conditions -  °F | °C
As of 4:13 PM on Sunday 23 Nov 2014 (Local Time) from CYSC Reporting Station
Moderate Fog Moderate Fog  
Wind Chill: 34°   Ceiling: 500
Heat Index: 37°   Visibility: 0.25mi
Dew Point: 37°   Wind: 5mph
Humidity: 100%   Direction: 120°ESE
Pressure: 30.04"   Gusts: NA
Location:  45.53°N, 71.28°W
Report Text: CYSC 232113Z AUTO 12004KT 1/4SM FG VV005 03/03 A3004 RMK SLP181
Loading
Personal Weather Stations






























Interactive Weather Map New forecast layout! Learn more

10-Day Weather Forecast

Advertisements
Track Severe Weather on mobile